sensor_id;sensor_type;location;lat;lon;timestamp;pressure;altitude;pressure_sealevel;temperature;humidity
56992;BME280;42885;49.754;18.636;2023-02-19T00:00:39;98036.63;;;13.67;89.04
56992;BME280;42885;49.754;18.636;2023-02-19T00:03:11;98039.72;;;13.61;87.79
56992;BME280;42885;49.754;18.636;2023-02-19T00:05:42;98049.69;;;13.33;92.00
56992;BME280;42885;49.754;18.636;2023-02-19T00:08:13;98057.16;;;13.45;94.25
56992;BME280;42885;49.754;18.636;2023-02-19T00:10:44;98073.19;;;13.29;96.99
56992;BME280;42885;49.754;18.636;2023-02-19T00:13:15;98075.45;;;13.22;98.03
56992;BME280;42885;49.754;18.636;2023-02-19T00:15:46;98096.29;;;13.06;100.00
56992;BME280;42885;49.754;18.636;2023-02-19T00:18:17;98095.97;;;13.17;100.00
56992;BME280;42885;49.754;18.636;2023-02-19T00:20:48;98104.36;;;12.98;100.00
56992;BME280;42885;49.754;18.636;2023-02-19T00:23:19;98110.55;;;12.66;100.00
56992;BME280;42885;49.754;18.636;2023-02-19T00:25:50;98104.54;;;12.64;100.00
56992;BME280;42885;49.754;18.636;2023-02-19T00:28:22;98111.11;;;12.46;100.00
56992;BME280;42885;49.754;18.636;2023-02-19T00:30:53;98126.56;;;12.56;100.00
56992;BME280;42885;49.754;18.636;2023-02-19T00:33:24;98118.45;;;12.53;100.00
56992;BME280;42885;49.754;18.636;2023-02-19T00:35:59;98121.31;;;12.56;100.00
56992;BME280;42885;49.754;18.636;2023-02-19T00:38:31;98122.66;;;12.43;100.00
56992;BME280;42885;49.754;18.636;2023-02-19T00:41:02;98114.81;;;12.49;100.00
56992;BME280;42885;49.754;18.636;2023-02-19T00:43:35;98106.84;;;12.32;100.00
56992;BME280;42885;49.754;18.636;2023-02-19T00:46:06;98104.88;;;12.41;100.00
56992;BME280;42885;49.754;18.636;2023-02-19T00:48:37;98102.70;;;12.53;100.00
56992;BME280;42885;49.754;18.636;2023-02-19T00:51:07;98109.37;;;12.52;100.00
56992;BME280;42885;49.754;18.636;2023-02-19T00:53:38;98101.23;;;12.49;100.00
56992;BME280;42885;49.754;18.636;2023-02-19T00:56:09;98106.22;;;12.28;100.00
56992;BME280;42885;49.754;18.636;2023-02-19T00:58:41;98092.64;;;12.29;100.00
56992;BME280;42885;49.754;18.636;2023-02-19T01:01:13;98090.11;;;12.27;100.00
56992;BME280;42885;49.754;18.636;2023-02-19T01:03:46;98084.67;;;12.36;100.00
56992;BME280;42885;49.754;18.636;2023-02-19T01:06:20;98075.94;;;12.48;100.00
56992;BME280;42885;49.754;18.636;2023-02-19T01:08:51;98071.81;;;12.38;100.00
56992;BME280;42885;49.754;18.636;2023-02-19T01:11:22;98072.47;;;12.29;100.00
56992;BME280;42885;49.754;18.636;2023-02-19T01:13:58;98074.07;;;12.19;100.00
56992;BME280;42885;49.754;18.636;2023-02-19T01:16:30;98068.73;;;12.39;100.00
56992;BME280;42885;49.754;18.636;2023-02-19T01:19:02;98064.53;;;12.36;100.00
56992;BME280;42885;49.754;18.636;2023-02-19T01:21:33;98058.75;;;12.31;100.00
56992;BME280;42885;49.754;18.636;2023-02-19T01:24:05;98059.41;;;12.22;100.00
56992;BME280;42885;49.754;18.636;2023-02-19T01:26:36;98055.51;;;12.28;100.00
56992;BME280;42885;49.754;18.636;2023-02-19T01:29:07;98062.23;;;12.32;100.00
56992;BME280;42885;49.754;18.636;2023-02-19T01:31:39;98060.92;;;12.13;100.00
56992;BME280;42885;49.754;18.636;2023-02-19T01:34:11;98057.16;;;12.60;100.00
56992;BME280;42885;49.754;18.636;2023-02-19T01:36:42;98065.71;;;12.19;100.00
56992;BME280;42885;49.754;18.636;2023-02-19T01:39:13;98053.93;;;12.38;100.00
56992;BME280;42885;49.754;18.636;2023-02-19T01:41:44;98045.28;;;12.11;100.00
56992;BME280;42885;49.754;18.636;2023-02-19T01:46:49;98029.63;;;11.97;100.00
56992;BME280;42885;49.754;18.636;2023-02-19T01:49:30;98034.20;;;12.14;100.00
56992;BME280;42885;49.754;18.636;2023-02-19T01:52:18;98028.75;;;12.17;100.00
56992;BME280;42885;49.754;18.636;2023-02-19T01:54:35;98040.03;;;12.11;100.00
56992;BME280;42885;49.754;18.636;2023-02-19T01:57:10;98042.91;;;12.14;100.00
56992;BME280;42885;49.754;18.636;2023-02-19T01:59:41;98042.78;;;12.29;100.00
56992;BME280;42885;49.754;18.636;2023-02-19T02:02:12;98035.14;;;12.31;100.00
56992;BME280;42885;49.754;18.636;2023-02-19T02:04:43;98041.89;;;12.41;100.00
56992;BME280;42885;49.754;18.636;2023-02-19T02:07:17;98044.23;;;12.14;100.00
56992;BME280;42885;49.754;18.636;2023-02-19T02:10:06;98040.06;;;12.17;100.00
56992;BME280;42885;49.754;18.636;2023-02-19T02:12:51;98038.58;;;11.68;100.00
56992;BME280;42885;49.754;18.636;2023-02-19T02:15:25;98036.82;;;12.14;100.00
56992;BME280;42885;49.754;18.636;2023-02-19T02:27:01;98030.19;;;12.21;100.00
56992;BME280;42885;49.754;18.636;2023-02-19T02:32:44;98015.17;;;12.04;100.00
56992;BME280;42885;49.754;18.636;2023-02-19T02:35:16;98014.81;;;12.03;100.00
56992;BME280;42885;49.754;18.636;2023-02-19T02:37:50;98002.22;;;12.08;100.00
56992;BME280;42885;49.754;18.636;2023-02-19T02:40:23;97999.83;;;12.11;100.00
56992;BME280;42885;49.754;18.636;2023-02-19T02:42:56;98009.89;;;12.17;100.00
56992;BME280;42885;49.754;18.636;2023-02-19T02:45:30;98007.00;;;11.83;100.00
56992;BME280;42885;49.754;18.636;2023-02-19T02:48:21;97999.39;;;11.67;100.00
56992;BME280;42885;49.754;18.636;2023-02-19T02:51:05;97995.44;;;11.80;100.00
56992;BME280;42885;49.754;18.636;2023-02-19T02:53:22;97985.08;;;11.52;100.00
56992;BME280;42885;49.754;18.636;2023-02-19T02:56:11;97977.80;;;11.50;100.00
56992;BME280;42885;49.754;18.636;2023-02-19T02:58:44;97974.33;;;11.81;100.00
56992;BME280;42885;49.754;18.636;2023-02-19T03:01:22;97968.13;;;11.95;100.00
56992;BME280;42885;49.754;18.636;2023-02-19T03:04:11;97959.94;;;12.00;100.00
56992;BME280;42885;49.754;18.636;2023-02-19T03:06:43;97960.45;;;12.48;100.00
56992;BME280;42885;49.754;18.636;2023-02-19T03:09:22;97956.56;;;11.79;100.00
56992;BME280;42885;49.754;18.636;2023-02-19T03:11:53;97950.48;;;12.10;100.00
56992;BME280;42885;49.754;18.636;2023-02-19T03:14:47;97951.13;;;12.20;100.00
56992;BME280;42885;49.754;18.636;2023-02-19T03:17:41;97944.73;;;11.92;100.00
56992;BME280;42885;49.754;18.636;2023-02-19T03:20:31;97936.66;;;11.95;100.00
56992;BME280;42885;49.754;18.636;2023-02-19T03:23:06;97926.28;;;11.94;100.00
56992;BME280;42885;49.754;18.636;2023-02-19T03:25:38;97930.22;;;12.13;100.00
56992;BME280;42885;49.754;18.636;2023-02-19T03:28:32;97929.98;;;12.16;100.00
56992;BME280;42885;49.754;18.636;2023-02-19T03:31:23;97932.56;;;12.04;100.00
56992;BME280;42885;49.754;18.636;2023-02-19T03:34:00;97945.22;;;11.92;100.00
56992;BME280;42885;49.754;18.636;2023-02-19T03:36:29;97939.77;;;12.74;100.00
56992;BME280;42885;49.754;18.636;2023-02-19T03:39:03;97949.91;;;11.62;100.00
56992;BME280;42885;49.754;18.636;2023-02-19T03:41:45;97941.36;;;11.40;100.00
56992;BME280;42885;49.754;18.636;2023-02-19T03:47:24;97924.97;;;11.75;100.00
56992;BME280;42885;49.754;18.636;2023-02-19T03:53:04;97914.52;;;12.24;100.00
56992;BME280;42885;49.754;18.636;2023-02-19T03:55:43;97922.55;;;12.28;100.00
56992;BME280;42885;49.754;18.636;2023-02-19T03:58:23;97909.26;;;12.43;100.00
56992;BME280;42885;49.754;18.636;2023-02-19T04:01:03;97906.21;;;12.60;100.00
56992;BME280;42885;49.754;18.636;2023-02-19T04:03:40;97894.59;;;12.51;100.00
56992;BME280;42885;49.754;18.636;2023-02-19T04:06:13;97893.34;;;12.69;100.00
56992;BME280;42885;49.754;18.636;2023-02-19T04:08:49;97888.36;;;12.77;100.00
56992;BME280;42885;49.754;18.636;2023-02-19T04:11:22;97896.84;;;12.86;100.00
56992;BME280;42885;49.754;18.636;2023-02-19T04:14:11;97893.50;;;12.84;100.00
56992;BME280;42885;49.754;18.636;2023-02-19T04:16:52;97888.25;;;12.84;100.00
56992;BME280;42885;49.754;18.636;2023-02-19T04:19:18;97887.55;;;12.93;100.00
56992;BME280;42885;49.754;18.636;2023-02-19T04:21:50;97872.64;;;13.00;100.00
56992;BME280;42885;49.754;18.636;2023-02-19T04:24:28;97872.64;;;13.11;100.00
56992;BME280;42885;49.754;18.636;2023-02-19T04:26:59;97869.88;;;13.07;100.00
56992;BME280;42885;49.754;18.636;2023-02-19T04:29:30;97878.38;;;13.16;99.00
56992;BME280;42885;49.754;18.636;2023-02-19T04:32:01;97890.77;;;12.91;100.00
56992;BME280;42885;49.754;18.636;2023-02-19T04:34:32;97881.83;;;13.00;100.00
56992;BME280;42885;49.754;18.636;2023-02-19T04:37:04;97882.90;;;13.03;100.00
56992;BME280;42885;49.754;18.636;2023-02-19T04:39:35;97878.14;;;13.08;99.52
56992;BME280;42885;49.754;18.636;2023-02-19T04:42:06;97868.69;;;13.17;98.92
56992;BME280;42885;49.754;18.636;2023-02-19T04:44:37;97867.02;;;13.21;98.21
56992;BME280;42885;49.754;18.636;2023-02-19T04:47:08;97868.31;;;12.99;99.45
56992;BME280;42885;49.754;18.636;2023-02-19T04:49:39;97870.47;;;13.05;100.00
56992;BME280;42885;49.754;18.636;2023-02-19T04:52:10;97873.59;;;13.10;98.94
56992;BME280;42885;49.754;18.636;2023-02-19T04:54:42;97873.06;;;12.76;100.00
56992;BME280;42885;49.754;18.636;2023-02-19T04:57:12;97860.53;;;12.74;100.00
56992;BME280;42885;49.754;18.636;2023-02-19T04:59:44;97848.36;;;12.62;100.00
56992;BME280;42885;49.754;18.636;2023-02-19T05:02:15;97854.33;;;12.70;100.00
56992;BME280;42885;49.754;18.636;2023-02-19T05:04:46;97853.36;;;12.65;100.00
56992;BME280;42885;49.754;18.636;2023-02-19T05:07:18;97847.52;;;12.73;100.00
56992;BME280;42885;49.754;18.636;2023-02-19T05:09:48;97841.80;;;12.79;100.00
56992;BME280;42885;49.754;18.636;2023-02-19T05:12:20;97839.39;;;12.64;100.00
56992;BME280;42885;49.754;18.636;2023-02-19T05:14:51;97843.93;;;12.74;100.00
56992;BME280;42885;49.754;18.636;2023-02-19T05:17:22;97834.53;;;12.77;100.00
56992;BME280;42885;49.754;18.636;2023-02-19T05:19:53;97828.92;;;12.70;100.00
56992;BME280;42885;49.754;18.636;2023-02-19T05:22:24;97824.47;;;12.53;100.00
56992;BME280;42885;49.754;18.636;2023-02-19T05:24:55;97830.69;;;12.64;100.00
56992;BME280;42885;49.754;18.636;2023-02-19T05:27:26;97815.30;;;12.65;100.00
56992;BME280;42885;49.754;18.636;2023-02-19T05:29:57;97823.06;;;12.66;100.00
56992;BME280;42885;49.754;18.636;2023-02-19T05:32:28;97828.07;;;12.70;100.00
56992;BME280;42885;49.754;18.636;2023-02-19T05:34:59;97812.81;;;12.75;100.00
56992;BME280;42885;49.754;18.636;2023-02-19T05:37:30;97818.63;;;12.73;100.00
56992;BME280;42885;49.754;18.636;2023-02-19T05:40:01;97828.31;;;12.78;100.00
56992;BME280;42885;49.754;18.636;2023-02-19T05:42:31;97830.94;;;12.66;100.00
56992;BME280;42885;49.754;18.636;2023-02-19T05:45:03;97824.48;;;12.59;100.00
56992;BME280;42885;49.754;18.636;2023-02-19T05:47:34;97827.35;;;12.62;100.00
56992;BME280;42885;49.754;18.636;2023-02-19T05:50:05;97828.67;;;12.68;100.00
56992;BME280;42885;49.754;18.636;2023-02-19T05:52:36;97841.91;;;12.72;100.00
56992;BME280;42885;49.754;18.636;2023-02-19T05:55:07;97839.74;;;12.65;100.00
56992;BME280;42885;49.754;18.636;2023-02-19T05:57:42;97848.82;;;12.67;100.00
56992;BME280;42885;49.754;18.636;2023-02-19T06:00:15;97840.98;;;12.78;100.00
56992;BME280;42885;49.754;18.636;2023-02-19T06:02:47;97841.80;;;12.73;100.00
56992;BME280;42885;49.754;18.636;2023-02-19T06:05:18;97843.92;;;12.62;100.00
56992;BME280;42885;49.754;18.636;2023-02-19T06:07:49;97839.88;;;12.70;100.00
56992;BME280;42885;49.754;18.636;2023-02-19T06:10:20;97846.75;;;12.48;100.00
56992;BME280;42885;49.754;18.636;2023-02-19T06:12:54;97857.03;;;12.51;100.00
56992;BME280;42885;49.754;18.636;2023-02-19T06:15:25;97857.92;;;12.33;100.00
56992;BME280;42885;49.754;18.636;2023-02-19T06:17:56;97855.71;;;12.45;100.00
56992;BME280;42885;49.754;18.636;2023-02-19T06:20:27;97853.48;;;12.28;100.00
56992;BME280;42885;49.754;18.636;2023-02-19T06:22:58;97854.59;;;12.36;100.00
56992;BME280;42885;49.754;18.636;2023-02-19T06:25:31;97851.29;;;12.16;100.00
56992;BME280;42885;49.754;18.636;2023-02-19T06:28:02;97851.95;;;12.25;100.00
56992;BME280;42885;49.754;18.636;2023-02-19T06:30:33;97861.34;;;12.22;100.00
56992;BME280;42885;49.754;18.636;2023-02-19T06:33:04;97856.06;;;12.10;100.00
56992;BME280;42885;49.754;18.636;2023-02-19T06:35:35;97862.63;;;12.16;100.00
56992;BME280;42885;49.754;18.636;2023-02-19T06:38:06;97851.53;;;12.13;100.00
56992;BME280;42885;49.754;18.636;2023-02-19T06:40:37;97849.07;;;12.22;100.00
56992;BME280;42885;49.754;18.636;2023-02-19T06:43:08;97850.11;;;12.14;100.00
56992;BME280;42885;49.754;18.636;2023-02-19T06:45:39;97857.22;;;12.06;100.00
56992;BME280;42885;49.754;18.636;2023-02-19T06:48:10;97846.50;;;12.04;100.00
56992;BME280;42885;49.754;18.636;2023-02-19T06:50:41;97841.14;;;12.11;100.00
56992;BME280;42885;49.754;18.636;2023-02-19T06:53:12;97840.22;;;12.12;100.00
56992;BME280;42885;49.754;18.636;2023-02-19T06:55:43;97837.53;;;11.82;100.00
56992;BME280;42885;49.754;18.636;2023-02-19T06:58:14;97841.77;;;11.96;100.00
56992;BME280;42885;49.754;18.636;2023-02-19T07:00:45;97838.24;;;12.03;100.00
56992;BME280;42885;49.754;18.636;2023-02-19T07:03:16;97835.28;;;12.07;100.00
56992;BME280;42885;49.754;18.636;2023-02-19T07:05:47;97839.45;;;12.04;100.00
56992;BME280;42885;49.754;18.636;2023-02-19T07:08:18;97833.90;;;11.96;100.00
56992;BME280;42885;49.754;18.636;2023-02-19T07:10:57;97837.02;;;11.77;100.00
56992;BME280;42885;49.754;18.636;2023-02-19T07:13:28;97823.85;;;11.90;100.00
56992;BME280;42885;49.754;18.636;2023-02-19T07:16:01;97830.05;;;11.89;100.00
56992;BME280;42885;49.754;18.636;2023-02-19T07:18:33;97823.81;;;11.78;100.00
56992;BME280;42885;49.754;18.636;2023-02-19T07:21:09;97830.64;;;11.87;100.00
56992;BME280;42885;49.754;18.636;2023-02-19T07:23:41;97829.02;;;11.97;100.00
56992;BME280;42885;49.754;18.636;2023-02-19T07:26:14;97818.88;;;11.98;100.00
56992;BME280;42885;49.754;18.636;2023-02-19T07:28:48;97822.51;;;12.03;100.00
56992;BME280;42885;49.754;18.636;2023-02-19T07:31:21;97821.34;;;12.07;100.00
56992;BME280;42885;49.754;18.636;2023-02-19T07:33:53;97823.28;;;12.16;100.00
56992;BME280;42885;49.754;18.636;2023-02-19T07:36:24;97811.38;;;12.18;100.00
56992;BME280;42885;49.754;18.636;2023-02-19T07:38:56;97813.85;;;12.14;100.00
56992;BME280;42885;49.754;18.636;2023-02-19T07:41:28;97803.23;;;11.91;100.00
56992;BME280;42885;49.754;18.636;2023-02-19T07:43:59;97812.87;;;12.03;100.00
56992;BME280;42885;49.754;18.636;2023-02-19T07:46:30;97801.94;;;12.15;100.00
56992;BME280;42885;49.754;18.636;2023-02-19T07:49:01;97807.23;;;12.02;100.00
56992;BME280;42885;49.754;18.636;2023-02-19T07:51:32;97798.66;;;12.00;100.00
56992;BME280;42885;49.754;18.636;2023-02-19T07:54:03;97792.98;;;11.88;100.00
56992;BME280;42885;49.754;18.636;2023-02-19T07:56:34;97790.62;;;11.90;100.00
56992;BME280;42885;49.754;18.636;2023-02-19T07:59:05;97795.43;;;12.02;100.00
56992;BME280;42885;49.754;18.636;2023-02-19T08:01:36;97789.47;;;12.00;100.00
56992;BME280;42885;49.754;18.636;2023-02-19T08:04:25;97788.89;;;11.53;100.00
56992;BME280;42885;49.754;18.636;2023-02-19T08:06:57;97782.90;;;11.70;100.00
56992;BME280;42885;49.754;18.636;2023-02-19T08:09:28;97785.55;;;11.76;100.00
56992;BME280;42885;49.754;18.636;2023-02-19T08:11:59;97781.23;;;11.69;100.00
56992;BME280;42885;49.754;18.636;2023-02-19T08:14:48;97781.41;;;11.79;100.00
56992;BME280;42885;49.754;18.636;2023-02-19T08:17:19;97783.47;;;11.92;100.00
56992;BME280;42885;49.754;18.636;2023-02-19T08:19:50;97775.24;;;11.91;100.00
56992;BME280;42885;49.754;18.636;2023-02-19T08:22:21;97782.24;;;11.85;100.00
56992;BME280;42885;49.754;18.636;2023-02-19T08:24:52;97787.05;;;11.97;100.00
56992;BME280;42885;49.754;18.636;2023-02-19T08:27:23;97776.05;;;11.86;100.00
56992;BME280;42885;49.754;18.636;2023-02-19T08:29:55;97778.38;;;12.02;100.00
56992;BME280;42885;49.754;18.636;2023-02-19T08:32:28;97777.64;;;12.24;100.00
56992;BME280;42885;49.754;18.636;2023-02-19T08:35:00;97774.17;;;12.24;100.00
56992;BME280;42885;49.754;18.636;2023-02-19T08:37:38;97766.59;;;12.55;100.00
56992;BME280;42885;49.754;18.636;2023-02-19T08:40:07;97759.42;;;12.57;100.00
56992;BME280;42885;49.754;18.636;2023-02-19T08:42:38;97766.45;;;12.39;100.00
56992;BME280;42885;49.754;18.636;2023-02-19T08:45:09;97753.44;;;12.32;100.00
56992;BME280;42885;49.754;18.636;2023-02-19T08:47:40;97748.69;;;12.49;100.00
56992;BME280;42885;49.754;18.636;2023-02-19T08:50:12;97746.30;;;12.57;100.00
56992;BME280;42885;49.754;18.636;2023-02-19T08:52:49;97749.66;;;12.76;100.00
56992;BME280;42885;49.754;18.636;2023-02-19T08:55:16;97739.41;;;12.68;100.00
56992;BME280;42885;49.754;18.636;2023-02-19T08:57:47;97740.83;;;12.72;100.00
56992;BME280;42885;49.754;18.636;2023-02-19T09:00:18;97744.41;;;12.65;100.00
56992;BME280;42885;49.754;18.636;2023-02-19T09:02:50;97748.58;;;12.45;100.00
56992;BME280;42885;49.754;18.636;2023-02-19T09:05:22;97748.98;;;12.16;100.00
56992;BME280;42885;49.754;18.636;2023-02-19T09:07:53;97743.17;;;12.18;100.00
56992;BME280;42885;49.754;18.636;2023-02-19T09:10:24;97745.30;;;12.18;100.00
56992;BME280;42885;49.754;18.636;2023-02-19T09:12:55;97741.52;;;12.28;100.00
56992;BME280;42885;49.754;18.636;2023-02-19T09:15:27;97733.67;;;12.57;100.00
56992;BME280;42885;49.754;18.636;2023-02-19T09:17:59;97736.66;;;12.52;100.00
56992;BME280;42885;49.754;18.636;2023-02-19T09:20:32;97742.38;;;12.46;100.00
56992;BME280;42885;49.754;18.636;2023-02-19T09:23:04;97743.82;;;12.50;100.00
56992;BME280;42885;49.754;18.636;2023-02-19T09:25:35;97741.79;;;12.65;100.00
56992;BME280;42885;49.754;18.636;2023-02-19T09:28:07;97737.74;;;12.66;100.00
56992;BME280;42885;49.754;18.636;2023-02-19T09:30:38;97730.34;;;12.83;100.00
56992;BME280;42885;49.754;18.636;2023-02-19T09:33:09;97721.96;;;13.01;100.00
56992;BME280;42885;49.754;18.636;2023-02-19T09:35:40;97719.19;;;13.02;100.00
56992;BME280;42885;49.754;18.636;2023-02-19T09:38:11;97731.03;;;12.91;100.00
56992;BME280;42885;49.754;18.636;2023-02-19T09:40:42;97722.34;;;12.73;100.00
56992;BME280;42885;49.754;18.636;2023-02-19T09:43:19;97738.58;;;12.78;100.00
56992;BME280;42885;49.754;18.636;2023-02-19T09:45:54;97727.57;;;12.85;100.00
56992;BME280;42885;49.754;18.636;2023-02-19T09:48:24;97734.95;;;13.02;100.00
56992;BME280;42885;49.754;18.636;2023-02-19T09:50:56;97742.95;;;13.06;100.00
56992;BME280;42885;49.754;18.636;2023-02-19T09:53:32;97734.23;;;13.06;100.00
56992;BME280;42885;49.754;18.636;2023-02-19T09:56:03;97736.14;;;13.21;100.00
56992;BME280;42885;49.754;18.636;2023-02-19T09:58:40;97743.11;;;12.88;100.00
56992;BME280;42885;49.754;18.636;2023-02-19T10:01:09;97758.84;;;12.76;100.00
56992;BME280;42885;49.754;18.636;2023-02-19T10:03:43;97777.22;;;13.22;100.00
56992;BME280;42885;49.754;18.636;2023-02-19T10:06:25;97803.50;;;12.93;100.00
56992;BME280;42885;49.754;18.636;2023-02-19T10:11:50;97819.88;;;11.78;100.00
56992;BME280;42885;49.754;18.636;2023-02-19T10:14:39;97824.72;;;11.96;100.00
56992;BME280;42885;49.754;18.636;2023-02-19T10:17:26;97824.92;;;12.06;100.00
56992;BME280;42885;49.754;18.636;2023-02-19T10:19:44;97849.88;;;11.93;100.00
56992;BME280;42885;49.754;18.636;2023-02-19T10:22:15;97854.06;;;11.95;100.00
56992;BME280;42885;49.754;18.636;2023-02-19T10:24:49;97846.50;;;12.04;100.00
56992;BME280;42885;49.754;18.636;2023-02-19T10:27:21;97847.42;;;12.03;100.00
56992;BME280;42885;49.754;18.636;2023-02-19T10:29:53;97856.58;;;12.21;100.00
56992;BME280;42885;49.754;18.636;2023-02-19T10:32:25;97864.64;;;12.13;100.00
56992;BME280;42885;49.754;18.636;2023-02-19T10:35:09;97868.41;;;12.27;100.00
56992;BME280;42885;49.754;18.636;2023-02-19T10:37:48;97864.95;;;12.32;100.00
56992;BME280;42885;49.754;18.636;2023-02-19T10:40:22;97871.23;;;12.24;100.00
56992;BME280;42885;49.754;18.636;2023-02-19T10:42:56;97884.42;;;12.11;100.00
56992;BME280;42885;49.754;18.636;2023-02-19T10:45:39;97891.75;;;12.00;100.00
56992;BME280;42885;49.754;18.636;2023-02-19T10:48:28;97901.34;;;11.88;100.00
56992;BME280;42885;49.754;18.636;2023-02-19T10:50:56;97907.40;;;11.89;100.00
56992;BME280;42885;49.754;18.636;2023-02-19T10:53:45;97915.34;;;11.63;100.00
56992;BME280;42885;49.754;18.636;2023-02-19T10:56:25;97912.39;;;11.67;100.00
56992;BME280;42885;49.754;18.636;2023-02-19T11:04:32;97925.36;;;11.82;100.00
56992;BME280;42885;49.754;18.636;2023-02-19T11:07:16;97925.30;;;11.70;100.00
56992;BME280;42885;49.754;18.636;2023-02-19T11:09:49;97932.38;;;11.81;100.00
56992;BME280;42885;49.754;18.636;2023-02-19T11:12:31;97924.26;;;12.10;100.00
56992;BME280;42885;49.754;18.636;2023-02-19T11:14:56;97933.13;;;11.83;100.00
56992;BME280;42885;49.754;18.636;2023-02-19T11:17:29;97933.08;;;12.09;100.00
56992;BME280;42885;49.754;18.636;2023-02-19T11:20:03;97925.17;;;12.28;100.00
56992;BME280;42885;49.754;18.636;2023-02-19T11:22:42;97929.25;;;12.68;100.00
56992;BME280;42885;49.754;18.636;2023-02-19T11:25:20;97933.16;;;12.57;100.00
56992;BME280;42885;49.754;18.636;2023-02-19T11:28:16;97940.64;;;12.20;100.00
56992;BME280;42885;49.754;18.636;2023-02-19T11:30:43;97940.95;;;12.09;100.00
56992;BME280;42885;49.754;18.636;2023-02-19T11:33:23;97944.13;;;12.26;100.00
56992;BME280;42885;49.754;18.636;2023-02-19T11:36:15;97952.75;;;12.09;100.00
56992;BME280;42885;49.754;18.636;2023-02-19T11:38:32;97961.57;;;12.08;100.00
56992;BME280;42885;49.754;18.636;2023-02-19T11:41:26;97974.78;;;11.75;100.00
56992;BME280;42885;49.754;18.636;2023-02-19T11:52:43;97998.89;;;11.99;100.00
56992;BME280;42885;49.754;18.636;2023-02-19T12:01:48;98011.41;;;12.08;100.00
56992;BME280;42885;49.754;18.636;2023-02-19T12:15:29;98008.91;;;11.81;100.00
56992;BME280;42885;49.754;18.636;2023-02-19T12:26:27;98020.69;;;12.07;100.00
56992;BME280;42885;49.754;18.636;2023-02-19T12:29:12;98030.21;;;11.37;100.00
56992;BME280;42885;49.754;18.636;2023-02-19T12:37:43;98042.47;;;11.63;100.00
56992;BME280;42885;49.754;18.636;2023-02-19T12:40:25;98049.65;;;11.53;100.00
56992;BME280;42885;49.754;18.636;2023-02-19T12:45:41;98049.86;;;11.76;100.00
56992;BME280;42885;49.754;18.636;2023-02-19T12:49:03;98049.06;;;11.55;100.00
56992;BME280;42885;49.754;18.636;2023-02-19T12:50:49;98048.34;;;11.66;100.00
56992;BME280;42885;49.754;18.636;2023-02-19T12:53:31;98048.70;;;11.54;100.00
56992;BME280;42885;49.754;18.636;2023-02-19T12:56:04;98060.09;;;11.61;100.00
56992;BME280;42885;49.754;18.636;2023-02-19T12:58:54;98068.05;;;11.59;100.00
56992;BME280;42885;49.754;18.636;2023-02-19T13:01:22;98067.73;;;11.64;100.00
56992;BME280;42885;49.754;18.636;2023-02-19T13:04:21;98076.65;;;11.28;100.00
56992;BME280;42885;49.754;18.636;2023-02-19T13:06:55;98088.01;;;11.01;100.00
56992;BME280;42885;49.754;18.636;2023-02-19T13:12:28;98103.64;;;10.68;100.00
56992;BME280;42885;49.754;18.636;2023-02-19T13:15:13;98113.50;;;10.84;100.00
56992;BME280;42885;49.754;18.636;2023-02-19T13:17:54;98115.34;;;10.62;100.00
56992;BME280;42885;49.754;18.636;2023-02-19T13:20:40;98123.99;;;10.42;100.00
56992;BME280;42885;49.754;18.636;2023-02-19T13:32:20;98143.87;;;10.23;100.00
56992;BME280;42885;49.754;18.636;2023-02-19T13:37:44;98153.48;;;10.30;100.00
56992;BME280;42885;49.754;18.636;2023-02-19T13:40:19;98157.02;;;10.07;100.00
56992;BME280;42885;49.754;18.636;2023-02-19T13:42:56;98152.83;;;9.97;100.00
56992;BME280;42885;49.754;18.636;2023-02-19T13:45:39;98159.38;;;10.04;100.00
56992;BME280;42885;49.754;18.636;2023-02-19T13:48:26;98161.20;;;9.81;100.00
56992;BME280;42885;49.754;18.636;2023-02-19T14:07:34;98182.78;;;9.84;100.00
56992;BME280;42885;49.754;18.636;2023-02-19T14:10:10;98187.89;;;9.86;100.00
56992;BME280;42885;49.754;18.636;2023-02-19T14:12:39;98199.36;;;9.83;100.00
56992;BME280;42885;49.754;18.636;2023-02-19T14:15:41;98206.15;;;10.02;100.00
56992;BME280;42885;49.754;18.636;2023-02-19T14:18:43;98214.02;;;9.71;100.00
56992;BME280;42885;49.754;18.636;2023-02-19T14:21:23;98220.52;;;9.64;100.00
56992;BME280;42885;49.754;18.636;2023-02-19T14:23:56;98232.79;;;9.78;100.00
56992;BME280;42885;49.754;18.636;2023-02-19T14:26:32;98236.47;;;9.59;100.00
56992;BME280;42885;49.754;18.636;2023-02-19T14:29:05;98243.29;;;9.22;100.00
56992;BME280;42885;49.754;18.636;2023-02-19T14:31:37;98258.15;;;9.29;100.00
56992;BME280;42885;49.754;18.636;2023-02-19T14:34:21;98268.13;;;9.46;100.00
56992;BME280;42885;49.754;18.636;2023-02-19T14:36:58;98268.13;;;9.46;100.00
56992;BME280;42885;49.754;18.636;2023-02-19T14:39:32;98275.77;;;9.65;100.00
56992;BME280;42885;49.754;18.636;2023-02-19T14:42:11;98290.25;;;9.47;100.00
56992;BME280;42885;49.754;18.636;2023-02-19T14:44:49;98287.97;;;9.41;100.00
56992;BME280;42885;49.754;18.636;2023-02-19T14:47:22;98300.73;;;9.39;100.00
56992;BME280;42885;49.754;18.636;2023-02-19T14:50:02;98295.36;;;9.17;100.00
56992;BME280;42885;49.754;18.636;2023-02-19T14:57:50;98314.08;;;9.00;100.00
56992;BME280;42885;49.754;18.636;2023-02-19T15:00:25;98311.95;;;9.00;100.00
56992;BME280;42885;49.754;18.636;2023-02-19T15:02:57;98311.91;;;9.08;100.00
56992;BME280;42885;49.754;18.636;2023-02-19T15:05:32;98319.39;;;9.23;98.50